createdAt,value
2023-05-09T00:02:01.215Z,0.40
2023-05-09T00:04:38.216Z,0.28
2023-05-09T00:07:11.174Z,0.32
2023-05-09T00:09:43.496Z,0.40
2023-05-09T00:12:29.648Z,0.40
2023-05-09T00:14:58.950Z,0.30
2023-05-09T00:17:30.717Z,0.30
2023-05-09T00:19:58.338Z,0.38
2023-05-09T00:22:29.074Z,0.30
2023-05-09T00:24:56.847Z,0.40
2023-05-09T00:27:24.510Z,0.30
2023-05-09T00:29:52.453Z,0.38
2023-05-09T00:32:21.456Z,0.45
2023-05-09T00:34:49.147Z,0.32
2023-05-09T00:37:21.015Z,0.43
2023-05-09T00:39:49.017Z,0.32
2023-05-09T00:42:17.341Z,0.40
2023-05-09T00:44:45.001Z,0.45
2023-05-09T00:47:33.062Z,0.38
2023-05-09T00:50:00.711Z,0.60
2023-05-09T00:52:46.904Z,0.55
2023-05-09T00:55:33.271Z,0.47
2023-05-09T00:58:00.935Z,0.55
2023-05-09T01:00:32.550Z,0.40
2023-05-09T01:03:20.591Z,0.40
2023-05-09T01:05:57.001Z,0.45
2023-05-09T01:08:38.614Z,0.73
2023-05-09T01:11:32.397Z,0.65
2023-05-09T01:14:09.431Z,0.52
2023-05-09T01:17:02.940Z,0.30
2023-05-09T01:20:05.950Z,0.40
2023-05-09T01:22:37.277Z,0.43
2023-05-09T01:25:24.859Z,0.47
2023-05-09T01:28:01.793Z,0.47
2023-05-09T01:30:32.413Z,0.68
2023-05-09T01:33:11.249Z,0.47
2023-05-09T01:36:03.345Z,0.38
2023-05-09T01:38:33.131Z,0.30
2023-05-09T01:41:05.433Z,0.25
2023-05-09T01:43:39.169Z,0.47
2023-05-09T01:48:58.359Z,0.25
2023-05-09T01:51:27.899Z,0.40
2023-05-09T01:53:59.079Z,0.65
2023-05-09T01:56:38.660Z,0.57
2023-05-09T01:59:09.148Z,0.65
2023-05-09T02:01:57.595Z,0.60
2023-05-09T02:04:44.843Z,0.60
2023-05-09T02:07:13.877Z,0.47
2023-05-09T02:09:44.746Z,0.65
2023-05-09T02:12:12.386Z,0.75
2023-05-09T02:14:58.893Z,0.40
2023-05-09T02:17:46.620Z,0.52
2023-05-09T02:20:14.638Z,0.50
2023-05-09T02:22:47.832Z,0.57
2023-05-09T02:25:18.677Z,0.68
2023-05-09T02:27:48.085Z,0.50
2023-05-09T02:30:40.179Z,0.32
2023-05-09T02:33:11.703Z,0.47
2023-05-09T02:35:45.022Z,0.40
2023-05-09T02:38:16.745Z,0.90
2023-05-09T02:40:50.335Z,0.38
2023-05-09T02:43:23.113Z,0.45
2023-05-09T02:45:50.877Z,0.43
2023-05-09T02:48:20.140Z,0.43
2023-05-09T02:51:06.604Z,0.30
2023-05-09T02:53:52.631Z,0.52
2023-05-09T02:56:20.980Z,0.50
2023-05-09T02:58:51.345Z,0.50
2023-05-09T03:01:19.323Z,0.50
2023-05-09T03:03:49.455Z,0.50
2023-05-09T03:06:17.327Z,0.47
2023-05-09T03:08:45.059Z,0.52
2023-05-09T03:11:12.733Z,0.45
2023-05-09T03:13:43.399Z,0.32
2023-05-09T03:16:21.316Z,0.32
2023-05-09T03:19:01.668Z,0.40
2023-05-09T03:21:31.901Z,0.38
2023-05-09T03:24:04.956Z,0.47
2023-05-09T03:26:53.412Z,0.45
2023-05-09T03:29:21.058Z,0.57
2023-05-09T03:32:07.309Z,0.57
2023-05-09T03:34:36.377Z,0.60
2023-05-09T03:37:13.027Z,0.57
2023-05-09T03:39:45.681Z,0.30
2023-05-09T03:42:32.092Z,0.43
2023-05-09T03:45:01.475Z,0.40
2023-05-09T03:47:47.822Z,0.43
2023-05-09T03:50:17.022Z,0.47
2023-05-09T03:52:44.697Z,0.47
2023-05-09T03:55:30.928Z,0.80
2023-05-09T03:57:58.885Z,0.98
2023-05-09T04:00:45.399Z,0.47
2023-05-09T04:03:13.942Z,0.63
2023-05-09T04:05:53.013Z,0.47
2023-05-09T04:08:20.730Z,0.32
2023-05-09T04:11:07.287Z,0.43
2023-05-09T04:13:35.182Z,0.75
2023-05-09T04:16:11.877Z,0.40
2023-05-09T04:18:58.160Z,0.65
2023-05-09T04:21:27.383Z,0.60
2023-05-09T04:24:05.786Z,0.60
2023-05-09T04:26:52.186Z,0.47
2023-05-09T04:29:19.855Z,0.47
2023-05-09T04:31:49.146Z,0.57
2023-05-09T04:34:35.764Z,0.68
2023-05-09T04:37:05.121Z,1.02
2023-05-09T04:39:33.576Z,0.43
2023-05-09T04:42:01.276Z,0.70
2023-05-09T04:44:29.114Z,0.65
2023-05-09T04:47:05.968Z,0.70
2023-05-09T04:49:52.191Z,0.47
2023-05-09T04:52:31.867Z,0.55
2023-05-09T04:55:18.275Z,0.80
2023-05-09T04:57:46.240Z,0.98
2023-05-09T05:00:15.955Z,0.88
2023-05-09T05:03:02.084Z,0.68
2023-05-09T05:05:35.999Z,0.73
2023-05-09T05:08:08.165Z,0.63
2023-05-09T05:10:54.606Z,0.43
2023-05-09T05:13:22.476Z,0.95
2023-05-09T05:15:55.081Z,0.77
2023-05-09T05:18:32.534Z,0.50
2023-05-09T05:21:02.369Z,0.52
2023-05-09T05:23:32.218Z,0.65
2023-05-09T05:26:00.637Z,0.40
2023-05-09T05:28:46.715Z,0.47
2023-05-09T05:31:14.407Z,0.57
2023-05-09T05:33:51.027Z,0.45
2023-05-09T05:36:23.822Z,0.52
2023-05-09T05:38:57.420Z,0.80
2023-05-09T05:41:35.065Z,0.70
2023-05-09T05:44:07.593Z,0.52
2023-05-09T05:46:54.016Z,0.60
2023-05-09T05:49:21.696Z,0.60
2023-05-09T05:51:58.609Z,0.73
2023-05-09T05:54:32.608Z,0.57
2023-05-09T05:57:04.209Z,0.68
2023-05-09T05:59:51.496Z,0.22
2023-05-09T06:02:19.696Z,0.43
2023-05-09T06:04:47.547Z,0.47
2023-05-09T06:07:33.970Z,0.57
2023-05-09T06:10:03.992Z,0.85
2023-05-09T06:12:32.524Z,0.55
2023-05-09T06:15:18.981Z,0.75
2023-05-09T06:17:46.910Z,0.50
2023-05-09T06:20:34.570Z,0.50
2023-05-09T06:23:05.266Z,0.68
2023-05-09T06:28:05.644Z,0.50
2023-05-09T06:30:51.937Z,0.55
2023-05-09T06:33:24.632Z,0.70
2023-05-09T06:36:11.670Z,0.52
2023-05-09T06:38:40.198Z,0.60
2023-05-09T06:41:12.227Z,0.50
2023-05-09T06:43:40.287Z,0.98
2023-05-09T06:46:09.819Z,0.98
2023-05-09T06:48:55.976Z,0.80
2023-05-09T06:51:23.740Z,0.57
2023-05-09T06:53:58.223Z,0.63
2023-05-09T06:56:46.387Z,0.93
2023-05-09T06:59:16.255Z,1.45
2023-05-09T07:01:46.028Z,0.88
2023-05-09T07:04:14.598Z,0.75
2023-05-09T07:06:52.201Z,0.77
2023-05-09T07:09:38.437Z,0.52
2023-05-09T07:12:07.952Z,0.40
2023-05-09T07:14:35.728Z,0.60
2023-05-09T07:17:24.045Z,0.70
2023-05-09T07:20:11.057Z,0.85
2023-05-09T07:22:38.755Z,0.90
2023-05-09T07:25:25.026Z,0.35
2023-05-09T07:27:53.978Z,0.45
2023-05-09T07:30:24.244Z,0.63
2023-05-09T07:35:41.245Z,0.63
2023-05-09T07:38:27.690Z,0.60
2023-05-09T07:40:55.385Z,0.52
2023-05-09T07:43:42.873Z,0.60
2023-05-09T07:46:10.533Z,0.52
2023-05-09T07:48:56.864Z,0.38
2023-05-09T07:51:24.502Z,0.45
2023-05-09T07:53:55.106Z,0.68
2023-05-09T07:56:23.855Z,0.43
2023-05-09T07:58:55.711Z,0.55
2023-05-09T08:01:23.729Z,0.55
2023-05-09T08:03:52.331Z,0.45
2023-05-09T08:06:24.637Z,0.52
2023-05-09T08:08:52.281Z,0.43
2023-05-09T08:11:24.701Z,0.45
2023-05-09T08:14:13.166Z,0.45
2023-05-09T08:16:43.288Z,0.47
2023-05-09T08:19:15.872Z,0.43
2023-05-09T08:22:01.899Z,0.50
2023-05-09T08:24:32.876Z,0.65
2023-05-09T08:27:19.318Z,0.57
2023-05-09T08:30:08.358Z,0.52
2023-05-09T08:32:36.184Z,0.65
2023-05-09T08:35:22.237Z,1.13
2023-05-09T08:37:49.893Z,0.35
2023-05-09T08:40:20.865Z,0.28
2023-05-09T08:42:49.754Z,0.55
2023-05-09T08:45:28.374Z,0.40
2023-05-09T08:48:16.597Z,0.63
2023-05-09T08:50:45.138Z,0.60
2023-05-09T08:53:13.526Z,0.60
2023-05-09T08:55:45.556Z,0.60
2023-05-09T08:58:23.364Z,0.52
2023-05-09T09:00:55.518Z,0.80
2023-05-09T09:03:26.241Z,0.68
2023-05-09T09:06:13.274Z,0.60
2023-05-09T09:08:41.633Z,0.68
2023-05-09T09:11:14.216Z,0.60
2023-05-09T09:13:53.736Z,0.50
2023-05-09T09:16:35.209Z,0.65
2023-05-09T09:19:10.576Z,0.73
2023-05-09T09:22:00.751Z,0.38
2023-05-09T09:24:28.320Z,0.50
2023-05-09T09:27:14.822Z,0.40
2023-05-09T09:29:42.479Z,0.80
2023-05-09T09:32:18.475Z,0.75
2023-05-09T09:35:06.947Z,0.45
2023-05-09T09:37:41.689Z,0.50
2023-05-09T09:40:18.707Z,0.57
2023-05-09T09:42:48.358Z,0.80
2023-05-09T09:45:20.900Z,0.47
2023-05-09T09:47:59.538Z,0.52
2023-05-09T09:50:31.330Z,0.73
2023-05-09T09:53:09.621Z,0.60
2023-05-09T09:55:55.956Z,0.43
2023-05-09T09:58:25.000Z,0.47
2023-05-09T10:01:13.827Z,0.43
2023-05-09T10:03:44.920Z,0.40
2023-05-09T10:06:31.808Z,0.63
2023-05-09T10:08:59.462Z,0.43
2023-05-09T10:11:31.801Z,0.45
2023-05-09T10:14:00.394Z,0.65
2023-05-09T10:16:49.130Z,0.57
2023-05-09T10:19:21.900Z,0.73
2023-05-09T10:21:54.526Z,0.65
2023-05-09T10:24:29.433Z,0.47
2023-05-09T10:27:05.130Z,0.68
2023-05-09T10:29:36.798Z,0.60
2023-05-09T10:32:28.707Z,0.45
2023-05-09T10:35:03.475Z,0.50
2023-05-09T10:37:50.958Z,0.60
2023-05-09T10:40:20.615Z,0.70
2023-05-09T10:43:08.258Z,0.40
2023-05-09T10:45:36.707Z,0.38
2023-05-09T10:48:09.050Z,0.55
2023-05-09T10:50:57.621Z,0.50
2023-05-09T10:53:26.222Z,0.52
2023-05-09T10:55:58.905Z,0.73
2023-05-09T10:58:28.571Z,0.47
2023-05-09T11:00:58.897Z,0.55
2023-05-09T11:03:29.798Z,0.57
2023-05-09T11:06:50.888Z,0.55
2023-05-09T11:09:39.209Z,0.43
2023-05-09T11:12:12.436Z,0.57
2023-05-09T11:15:06.393Z,0.57
2023-05-09T11:18:06.476Z,0.63
2023-05-09T11:20:53.573Z,0.50
2023-05-09T11:23:28.165Z,0.68
2023-05-09T11:26:06.591Z,0.60
2023-05-09T11:28:37.696Z,0.57
2023-05-09T11:31:12.334Z,0.52
2023-05-09T11:33:56.509Z,0.60
2023-05-09T11:36:33.883Z,0.65
2023-05-09T11:39:06.549Z,0.43
2023-05-09T11:41:53.102Z,1.02
2023-05-09T11:44:22.171Z,1.23
2023-05-09T11:46:51.669Z,0.55
2023-05-09T11:49:29.837Z,0.75
2023-05-09T11:52:07.220Z,0.45
2023-05-09T11:54:54.781Z,0.50
2023-05-09T11:57:22.497Z,0.50
2023-05-09T11:59:53.882Z,0.75
2023-05-09T12:02:41.011Z,0.57
2023-05-09T12:05:11.346Z,0.35
2023-05-09T12:07:41.337Z,0.88
2023-05-09T12:10:12.705Z,1.23
2023-05-09T12:12:44.611Z,0.88
2023-05-09T12:15:22.388Z,0.90
2023-05-09T12:18:09.273Z,0.88
2023-05-09T12:20:44.396Z,0.38
2023-05-09T12:23:15.865Z,0.35
2023-05-09T12:25:50.044Z,0.52
2023-05-09T12:28:37.033Z,0.45
2023-05-09T12:31:23.781Z,0.70
2023-05-09T12:34:10.680Z,0.50
2023-05-09T12:36:38.518Z,0.47
2023-05-09T12:39:24.824Z,0.47
2023-05-09T12:42:01.693Z,0.52
2023-05-09T12:44:51.659Z,0.52
2023-05-09T12:47:19.331Z,0.52
2023-05-09T12:49:50.952Z,0.75
2023-05-09T12:52:50.090Z,0.80
2023-05-09T12:55:22.095Z,0.80
2023-05-09T12:58:01.859Z,0.80
2023-05-09T13:00:43.286Z,0.75
2023-05-09T13:03:37.571Z,0.65
2023-05-09T13:06:13.901Z,0.50
2023-05-09T13:09:01.677Z,0.60
2023-05-09T13:11:48.656Z,0.52
2023-05-09T13:14:36.247Z,0.65
2023-05-09T13:17:22.846Z,1.08
2023-05-09T13:19:53.665Z,0.63
2023-05-09T13:22:26.699Z,0.75
2023-05-09T13:25:13.715Z,0.60
2023-05-09T13:28:00.019Z,0.70
2023-05-09T13:30:29.236Z,0.68
2023-05-09T13:33:16.587Z,0.57
2023-05-09T13:35:53.506Z,0.70
2023-05-09T13:38:40.983Z,0.47
2023-05-09T13:41:09.578Z,0.60
2023-05-09T13:43:46.461Z,0.50
2023-05-09T13:46:34.232Z,0.70
2023-05-09T13:49:01.958Z,0.45
2023-05-09T13:51:48.576Z,0.43
2023-05-09T13:54:18.580Z,0.60
2023-05-09T13:56:48.592Z,0.60
2023-05-09T13:59:25.468Z,0.52
2023-05-09T14:02:13.202Z,0.43
2023-05-09T14:05:02.776Z,0.80
2023-05-09T14:07:31.569Z,0.85
2023-05-09T14:10:18.437Z,0.68
2023-05-09T14:12:47.248Z,0.57
2023-05-09T14:15:20.076Z,0.80
2023-05-09T14:17:49.961Z,0.43
2023-05-09T14:20:37.433Z,1.10
2023-05-09T14:23:08.108Z,0.70
2023-05-09T14:25:40.678Z,0.60
2023-05-09T14:28:10.412Z,0.55
2023-05-09T14:30:57.378Z,0.55
2023-05-09T14:33:27.130Z,0.40
2023-05-09T14:36:07.211Z,0.57
2023-05-09T14:38:38.625Z,0.70
2023-05-09T14:41:24.832Z,0.43
2023-05-09T14:43:52.524Z,0.75
2023-05-09T14:46:20.518Z,0.65
2023-05-09T14:48:53.562Z,0.70
2023-05-09T14:51:30.347Z,0.93
2023-05-09T14:54:00.628Z,0.60
2023-05-09T14:56:31.447Z,0.63
2023-05-09T14:58:59.131Z,0.80
2023-05-09T15:01:36.887Z,0.90
2023-05-09T15:04:06.888Z,0.77
2023-05-09T15:06:34.729Z,0.73
2023-05-09T15:09:02.633Z,0.80
2023-05-09T15:11:36.403Z,0.60
2023-05-09T15:14:14.702Z,0.50
2023-05-09T15:16:43.244Z,0.43
2023-05-09T15:19:14.369Z,0.63
2023-05-09T15:21:42.102Z,0.40
2023-05-09T15:24:09.961Z,0.57
2023-05-09T15:26:37.650Z,1.05
2023-05-09T15:29:05.419Z,1.30
2023-05-09T15:31:34.309Z,0.80
2023-05-09T15:34:02.182Z,0.68
2023-05-09T15:36:32.067Z,0.60
2023-05-09T15:38:59.896Z,0.73
2023-05-09T15:41:27.882Z,0.50
2023-05-09T15:43:55.548Z,0.45
2023-05-09T15:46:23.293Z,0.30
2023-05-09T15:48:54.015Z,0.60
2023-05-09T15:51:23.353Z,0.82
2023-05-09T15:53:52.747Z,0.40
2023-05-09T15:56:21.627Z,0.50
2023-05-09T15:58:49.253Z,0.63
2023-05-09T16:01:17.250Z,0.50
2023-05-09T16:03:46.134Z,0.60
2023-05-09T16:06:14.243Z,0.52
2023-05-09T16:08:42.040Z,0.47
2023-05-09T16:11:11.046Z,0.30
2023-05-09T16:13:38.857Z,0.40
2023-05-09T16:16:06.980Z,0.60
2023-05-09T16:18:37.991Z,0.30
2023-05-09T16:21:06.119Z,0.40
2023-05-09T16:23:35.826Z,0.30
2023-05-09T16:26:03.487Z,0.40
2023-05-09T16:28:34.172Z,0.40
2023-05-09T16:31:04.677Z,0.52
2023-05-09T16:33:33.194Z,1.08
2023-05-09T16:36:01.424Z,2.47
2023-05-09T16:38:30.183Z,2.42
2023-05-09T16:40:58.821Z,2.45
2023-05-09T16:43:26.487Z,3.92
2023-05-09T16:45:55.837Z,4.15
2023-05-09T16:48:23.594Z,4.32
2023-05-09T16:50:53.568Z,5.10
2023-05-09T16:53:22.653Z,4.32
2023-05-09T16:55:50.467Z,4.38
2023-05-09T16:58:18.140Z,4.07
2023-05-09T17:00:46.062Z,6.05
2023-05-09T17:03:15.110Z,4.57
2023-05-09T17:05:42.733Z,4.07
2023-05-09T17:08:10.515Z,5.72
2023-05-09T17:10:39.497Z,4.90
2023-05-09T17:13:08.818Z,5.05
2023-05-09T17:15:38.246Z,4.40
2023-05-09T17:18:06.657Z,4.20
2023-05-09T17:20:35.681Z,3.58
2023-05-09T17:23:04.222Z,4.43
2023-05-09T17:25:33.387Z,4.05
2023-05-09T17:28:01.255Z,5.05
2023-05-09T17:30:29.155Z,4.18
2023-05-09T17:32:56.863Z,4.75
2023-05-09T17:35:25.749Z,5.65
2023-05-09T17:37:54.847Z,3.75
2023-05-09T17:40:22.801Z,4.10
2023-05-09T17:42:54.376Z,4.75
2023-05-09T17:45:25.005Z,4.35
2023-05-09T17:48:03.437Z,4.20
2023-05-09T17:50:32.939Z,4.07
2023-05-09T17:53:02.415Z,3.47
2023-05-09T17:55:30.277Z,3.63
2023-05-09T17:57:58.150Z,3.70
2023-05-09T18:00:26.101Z,4.20
2023-05-09T18:02:53.897Z,3.45
2023-05-09T18:05:23.340Z,3.60
2023-05-09T18:07:51.873Z,3.10
2023-05-09T18:10:22.210Z,3.80
2023-05-09T18:12:49.937Z,4.03
2023-05-09T18:15:17.583Z,3.72
2023-05-09T18:17:48.169Z,2.65
2023-05-09T18:20:16.221Z,2.35
2023-05-09T18:22:44.258Z,3.25
2023-05-09T18:25:13.869Z,2.40
2023-05-09T18:27:42.874Z,2.28
2023-05-09T18:30:11.364Z,2.97
2023-05-09T18:32:39.184Z,2.38
2023-05-09T18:35:08.111Z,2.65
2023-05-09T18:37:37.240Z,3.28
2023-05-09T18:40:05.940Z,3.85
2023-05-09T18:42:34.305Z,2.80
2023-05-09T18:45:05.771Z,2.97
2023-05-09T18:47:33.483Z,3.03
2023-05-09T18:50:02.848Z,2.85
2023-05-09T18:52:32.557Z,2.60
2023-05-09T18:55:00.545Z,2.72
2023-05-09T18:57:28.223Z,2.75
2023-05-09T18:59:56.058Z,2.38
2023-05-09T19:02:25.521Z,2.35
2023-05-09T19:04:53.282Z,2.33
2023-05-09T19:07:22.678Z,2.75
2023-05-09T19:09:51.284Z,2.53
2023-05-09T19:12:18.970Z,2.10
2023-05-09T19:14:46.839Z,2.63
2023-05-09T19:17:14.482Z,2.42
2023-05-09T19:19:44.468Z,4.18
2023-05-09T19:22:31.305Z,3.38
2023-05-09T19:24:59.161Z,2.53
2023-05-09T19:27:27.218Z,4.07
2023-05-09T19:29:55.855Z,3.38
2023-05-09T19:32:26.659Z,2.88
2023-05-09T19:34:56.314Z,3.17
2023-05-09T19:37:42.907Z,3.17
2023-05-09T19:40:29.669Z,3.13
2023-05-09T19:42:57.387Z,3.38
2023-05-09T19:45:27.285Z,2.40
2023-05-09T19:47:56.056Z,2.92
2023-05-09T19:53:13.613Z,2.65
2023-05-09T19:55:46.821Z,2.53
2023-05-09T19:58:33.294Z,2.20
2023-05-09T20:01:20.222Z,2.70
2023-05-09T20:04:07.476Z,2.80
2023-05-09T20:06:36.761Z,1.90
2023-05-09T20:09:07.582Z,1.83
2023-05-09T20:11:35.930Z,1.77
2023-05-09T20:14:06.743Z,1.60
2023-05-09T20:16:34.478Z,2.40
2023-05-09T20:19:20.907Z,2.05
2023-05-09T20:21:59.031Z,2.63
2023-05-09T20:24:45.702Z,1.80
2023-05-09T20:27:13.911Z,1.95
2023-05-09T20:29:41.562Z,1.27
2023-05-09T20:32:12.211Z,2.05
2023-05-09T20:34:39.977Z,2.30
2023-05-09T20:37:27.723Z,2.20
2023-05-09T20:39:55.598Z,1.98
2023-05-09T20:42:23.965Z,2.45
2023-05-09T20:44:51.873Z,1.77
2023-05-09T20:47:20.539Z,2.40
2023-05-09T20:49:48.200Z,1.80
2023-05-09T20:52:17.481Z,1.80
2023-05-09T20:54:50.336Z,1.50
2023-05-09T20:57:18.043Z,1.20
2023-05-09T20:59:47.645Z,0.98
2023-05-09T21:02:35.572Z,0.73
2023-05-09T21:07:53.598Z,0.77
2023-05-09T21:10:41.315Z,1.55
2023-05-09T21:13:12.188Z,1.52
2023-05-09T21:15:58.364Z,1.25
2023-05-09T21:18:26.218Z,1.05
2023-05-09T21:20:57.452Z,1.20
2023-05-09T21:23:43.576Z,1.30
2023-05-09T21:26:13.162Z,1.10
2023-05-09T21:28:45.378Z,1.10
2023-05-09T21:31:31.534Z,1.30
2023-05-09T21:33:59.378Z,1.55
2023-05-09T21:36:29.092Z,1.08
2023-05-09T21:39:15.758Z,1.20
2023-05-09T21:41:53.968Z,1.58
2023-05-09T21:44:31.429Z,1.13
2023-05-09T21:47:17.865Z,1.30
2023-05-09T21:49:49.435Z,1.20
2023-05-09T21:52:35.861Z,1.50
2023-05-09T21:55:08.229Z,1.15
2023-05-09T21:57:41.288Z,1.20
2023-05-09T22:00:15.198Z,1.38
2023-05-09T22:03:01.906Z,1.23
2023-05-09T22:05:29.625Z,1.20
2023-05-09T22:08:16.064Z,1.05
2023-05-09T22:11:02.383Z,1.05
2023-05-09T22:13:42.617Z,0.90
2023-05-09T22:16:29.923Z,0.40
2023-05-09T22:19:17.356Z,0.50
2023-05-09T22:21:48.898Z,1.10
2023-05-09T22:24:21.358Z,1.05
2023-05-09T22:27:07.920Z,0.70
2023-05-09T22:29:37.108Z,1.02
2023-05-09T22:32:07.531Z,1.00
2023-05-09T22:34:55.059Z,1.05
2023-05-09T22:37:22.962Z,0.90
2023-05-09T22:39:52.478Z,0.70
2023-05-09T22:42:21.160Z,0.77
2023-05-09T22:44:59.296Z,1.15
2023-05-09T22:47:27.143Z,0.60
2023-05-09T22:49:56.050Z,0.73
2023-05-09T22:52:24.571Z,0.80
2023-05-09T22:54:54.008Z,0.90
2023-05-09T22:57:23.654Z,1.10
2023-05-09T22:59:51.520Z,0.93
2023-05-09T23:02:21.295Z,0.80
2023-05-09T23:04:49.008Z,0.65
2023-05-09T23:07:17.604Z,0.70
2023-05-09T23:09:45.327Z,0.22
2023-05-09T23:12:13.054Z,0.60
2023-05-09T23:14:40.732Z,0.60
2023-05-09T23:17:08.404Z,0.60
2023-05-09T23:19:37.982Z,0.70
2023-05-09T23:22:05.950Z,0.70
2023-05-09T23:24:33.607Z,0.88
2023-05-09T23:27:02.475Z,0.77
2023-05-09T23:29:30.233Z,0.70
2023-05-09T23:31:57.890Z,0.73
2023-05-09T23:34:26.677Z,0.63
2023-05-09T23:36:55.691Z,0.55
2023-05-09T23:39:27.170Z,0.65
2023-05-09T23:42:13.739Z,0.50
2023-05-09T23:44:41.399Z,0.60
2023-05-09T23:47:10.906Z,0.47
2023-05-09T23:49:44.298Z,0.55
2023-05-09T23:52:24.288Z,0.80
2023-05-09T23:54:52.532Z,0.40
2023-05-09T23:57:21.941Z,0.38
